createdAt,value
2019-02-07T00:00:54.516Z,5.30
2019-02-07T00:03:24.041Z,5.30
2019-02-07T00:05:53.499Z,5.30
2019-02-07T00:08:23.265Z,5.20
2019-02-07T00:10:52.774Z,5.30
2019-02-07T00:13:22.632Z,5.30
2019-02-07T00:15:52.078Z,5.30
2019-02-07T00:18:21.942Z,5.30
2019-02-07T00:20:51.682Z,5.30
2019-02-07T00:23:21.257Z,5.20
2019-02-07T00:25:51.077Z,5.20
2019-02-07T00:28:20.523Z,5.10
2019-02-07T00:30:50.396Z,5.10
2019-02-07T00:33:19.928Z,5.00
2019-02-07T00:35:49.381Z,5.00
2019-02-07T00:38:19.516Z,5.00
2019-02-07T00:40:48.951Z,4.90
2019-02-07T00:43:18.415Z,4.80
2019-02-07T00:45:48.212Z,4.80
2019-02-07T00:48:17.667Z,4.80
2019-02-07T00:50:48.449Z,4.80
2019-02-07T00:53:17.917Z,4.70
2019-02-07T00:55:47.703Z,4.60
2019-02-07T00:58:17.133Z,4.60
2019-02-07T01:00:46.640Z,4.50
2019-02-07T01:03:16.081Z,4.50
2019-02-07T01:05:45.836Z,4.40
2019-02-07T01:08:15.270Z,4.50
2019-02-07T01:10:44.724Z,4.40
2019-02-07T01:13:14.188Z,4.40
2019-02-07T01:15:43.695Z,4.30
2019-02-07T01:18:13.190Z,4.30
2019-02-07T01:20:42.761Z,4.30
2019-02-07T01:23:12.333Z,4.30
2019-02-07T01:25:41.869Z,4.30
2019-02-07T01:28:11.316Z,4.30
2019-02-07T01:30:40.779Z,4.20
2019-02-07T01:33:10.666Z,4.10
2019-02-07T01:35:40.541Z,4.10
2019-02-07T01:38:10.353Z,4.00
2019-02-07T01:40:39.840Z,4.00
2019-02-07T01:43:09.294Z,4.00
2019-02-07T01:45:38.756Z,4.00
2019-02-07T01:48:08.849Z,3.90
2019-02-07T01:50:38.344Z,3.90
2019-02-07T01:53:09.078Z,3.90
2019-02-07T01:55:38.526Z,3.90
2019-02-07T01:58:08.500Z,3.80
2019-02-07T02:00:38.208Z,3.80
2019-02-07T02:03:07.973Z,3.70
2019-02-07T02:05:37.440Z,3.70
2019-02-07T02:08:07.605Z,3.70
2019-02-07T02:10:37.065Z,3.70
2019-02-07T02:13:06.912Z,3.70
2019-02-07T02:15:36.653Z,3.60
2019-02-07T02:18:06.521Z,3.60
2019-02-07T02:20:35.952Z,3.60
2019-02-07T02:23:05.430Z,3.60
2019-02-07T02:25:34.926Z,3.60
2019-02-07T02:28:04.488Z,3.60
2019-02-07T02:30:35.689Z,3.60
2019-02-07T02:33:05.700Z,3.50
2019-02-07T02:35:35.498Z,3.60
2019-02-07T02:38:04.945Z,3.60
2019-02-07T02:40:34.561Z,3.60
2019-02-07T02:43:04.025Z,3.50
2019-02-07T02:45:37.744Z,3.60
2019-02-07T02:48:05.233Z,3.50
2019-02-07T02:50:34.674Z,3.50
2019-02-07T02:53:04.491Z,3.50
2019-02-07T02:55:38.734Z,3.50
2019-02-07T02:58:08.520Z,3.60
2019-02-07T03:00:57.490Z,3.60
2019-02-07T03:03:48.546Z,3.60
2019-02-07T03:06:45.743Z,3.60
2019-02-07T03:09:34.616Z,3.60
2019-02-07T03:12:23.713Z,3.60
2019-02-07T03:15:14.901Z,3.60
2019-02-07T03:18:09.105Z,3.70
2019-02-07T03:21:00.583Z,3.70
2019-02-07T03:24:03.264Z,3.70
2019-02-07T03:27:06.715Z,3.70
2019-02-07T03:30:00.709Z,3.70
2019-02-07T03:32:53.630Z,3.70
2019-02-07T03:35:41.437Z,3.70
2019-02-07T03:38:35.879Z,3.60
2019-02-07T03:41:24.175Z,3.60
2019-02-07T03:44:18.414Z,3.70
2019-02-07T03:47:13.184Z,3.70
2019-02-07T03:50:00.746Z,3.70
2019-02-07T03:52:48.600Z,3.60
2019-02-07T03:55:55.609Z,3.70
2019-02-07T03:58:52.381Z,3.70
2019-02-07T04:01:47.053Z,3.70
2019-02-07T04:04:50.602Z,3.70
2019-02-07T04:07:41.969Z,3.70
2019-02-07T04:10:29.507Z,3.70
2019-02-07T04:13:24.261Z,3.70
2019-02-07T04:16:15.193Z,3.80
2019-02-07T04:19:13.464Z,3.80
2019-02-07T04:22:10.532Z,3.90
2019-02-07T04:24:57.599Z,3.90
2019-02-07T04:27:51.998Z,4.00
2019-02-07T04:30:46.208Z,4.00
2019-02-07T04:33:38.053Z,4.10
2019-02-07T04:36:33.088Z,4.00
2019-02-07T04:39:10.919Z,4.10
2019-02-07T04:41:51.250Z,4.10
2019-02-07T04:44:51.969Z,4.10
2019-02-07T04:47:46.560Z,4.20
2019-02-07T04:50:44.418Z,4.20
2019-02-07T04:53:42.695Z,4.20
2019-02-07T04:56:29.659Z,4.20
2019-02-07T04:59:21.211Z,4.30
2019-02-07T05:02:10.675Z,4.30
2019-02-07T05:05:02.002Z,4.30
2019-02-07T05:07:53.852Z,4.30
2019-02-07T05:10:41.047Z,4.40
2019-02-07T05:13:29.433Z,4.40
2019-02-07T05:16:17.821Z,4.40
2019-02-07T05:19:06.237Z,4.40
2019-02-07T05:22:01.842Z,4.50
2019-02-07T05:24:48.602Z,4.50
2019-02-07T05:27:46.945Z,4.60
2019-02-07T05:30:34.368Z,4.60
2019-02-07T05:33:26.324Z,4.70
2019-02-07T05:36:14.180Z,4.70
2019-02-07T05:39:01.504Z,4.80
2019-02-07T05:41:52.959Z,4.70
2019-02-07T05:44:33.560Z,4.80
2019-02-07T05:47:20.939Z,4.90
2019-02-07T05:50:04.002Z,4.90
2019-02-07T05:53:04.493Z,4.90
2019-02-07T05:55:49.440Z,4.90
2019-02-07T05:58:36.635Z,5.00
2019-02-07T06:01:29.501Z,5.00
2019-02-07T06:04:06.573Z,5.00
2019-02-07T06:06:47.559Z,5.00
2019-02-07T06:09:42.117Z,5.10
2019-02-07T06:12:42.441Z,5.10
2019-02-07T06:15:39.888Z,5.10
2019-02-07T06:18:38.625Z,5.20
2019-02-07T06:21:27.004Z,5.20
2019-02-07T06:24:15.389Z,5.20
2019-02-07T06:27:07.198Z,5.20
2019-02-07T06:29:54.533Z,5.30
2019-02-07T06:32:46.368Z,5.30
2019-02-07T06:35:33.746Z,5.40
2019-02-07T06:38:24.887Z,5.40
2019-02-07T06:41:19.090Z,5.50
2019-02-07T06:44:16.891Z,5.50
2019-02-07T06:47:13.040Z,5.50
2019-02-07T06:49:45.608Z,5.60
2019-02-07T06:52:43.218Z,5.60
2019-02-07T06:55:23.629Z,5.60
2019-02-07T06:58:08.501Z,5.70
2019-02-07T07:00:59.840Z,5.60
2019-02-07T07:03:48.169Z,5.60
2019-02-07T07:06:35.838Z,5.60
2019-02-07T07:09:32.383Z,5.60
2019-02-07T07:12:21.480Z,5.60
2019-02-07T07:15:10.148Z,5.60
2019-02-07T07:17:56.907Z,5.60
2019-02-07T07:20:47.874Z,5.60
2019-02-07T07:23:39.330Z,5.50
2019-02-07T07:26:28.397Z,5.40
2019-02-07T07:29:26.377Z,5.40
2019-02-07T07:32:16.302Z,5.30
2019-02-07T07:35:06.732Z,5.30
2019-02-07T07:38:13.602Z,5.20
2019-02-07T07:40:54.709Z,5.20
2019-02-07T07:43:54.450Z,5.20
2019-02-07T07:46:42.260Z,5.20
2019-02-07T07:49:29.262Z,5.30
2019-02-07T07:52:10.904Z,5.20
2019-02-07T07:55:02.094Z,5.20
2019-02-07T07:57:41.248Z,5.20
2019-02-07T08:00:30.170Z,5.20
2019-02-07T08:03:22.762Z,5.20
2019-02-07T08:06:03.128Z,5.20
2019-02-07T08:08:50.545Z,5.20
2019-02-07T08:11:38.937Z,5.30
2019-02-07T08:14:32.456Z,5.30
2019-02-07T08:17:19.485Z,5.30
2019-02-07T08:20:18.979Z,5.40
2019-02-07T08:23:07.697Z,5.40
2019-02-07T08:26:08.169Z,5.40
2019-02-07T08:28:59.573Z,5.40
2019-02-07T08:31:37.588Z,5.40
2019-02-07T08:34:37.835Z,5.50
2019-02-07T08:37:25.361Z,5.50
2019-02-07T08:40:17.077Z,5.60
2019-02-07T08:43:17.869Z,5.60
2019-02-07T08:46:09.706Z,5.60
2019-02-07T08:49:13.917Z,5.70
2019-02-07T08:51:57.015Z,5.70
2019-02-07T08:54:44.220Z,5.80
2019-02-07T08:57:22.781Z,5.80
2019-02-07T09:00:10.626Z,5.80
2019-02-07T09:03:14.412Z,5.80
2019-02-07T09:05:56.376Z,5.80
2019-02-07T09:08:53.809Z,5.80
2019-02-07T09:11:45.216Z,5.70
2019-02-07T09:14:39.537Z,5.80
2019-02-07T09:17:34.151Z,5.90
2019-02-07T09:20:18.012Z,5.90
2019-02-07T09:23:04.257Z,6.00
2019-02-07T09:25:58.797Z,6.00
2019-02-07T09:29:05.874Z,6.10
2019-02-07T09:31:54.242Z,6.20
2019-02-07T09:34:41.414Z,6.20
2019-02-07T09:37:42.174Z,6.40
2019-02-07T09:40:49.033Z,6.60
2019-02-07T09:43:28.724Z,6.70
2019-02-07T09:46:32.005Z,6.80
2019-02-07T09:49:14.273Z,6.90
2019-02-07T09:52:02.988Z,7.10
2019-02-07T09:55:06.529Z,7.20
2019-02-07T09:57:52.409Z,7.30
2019-02-07T10:00:35.278Z,7.50
2019-02-07T10:03:29.215Z,7.50
2019-02-07T10:06:17.611Z,7.70
2019-02-07T10:09:05.049Z,7.80
2019-02-07T10:11:53.443Z,8.10
2019-02-07T10:14:45.154Z,8.60
2019-02-07T10:17:36.652Z,8.90
2019-02-07T10:20:38.703Z,8.70
2019-02-07T10:23:42.520Z,8.60
2019-02-07T10:26:29.686Z,8.70
2019-02-07T10:29:10.957Z,8.90
2019-02-07T10:31:58.438Z,9.40
2019-02-07T10:34:44.928Z,9.60
2019-02-07T10:37:28.557Z,9.70
2019-02-07T10:40:19.744Z,9.60
2019-02-07T10:43:03.633Z,9.50
2019-02-07T10:45:57.357Z,9.20
2019-02-07T10:48:57.970Z,9.20
2019-02-07T10:51:52.557Z,9.20
2019-02-07T10:54:50.040Z,9.20
2019-02-07T10:57:41.565Z,9.20
2019-02-07T11:00:31.145Z,9.20
2019-02-07T11:03:22.661Z,9.30
2019-02-07T11:06:14.040Z,9.40
2019-02-07T11:09:01.340Z,9.40
2019-02-07T11:11:41.769Z,9.40
2019-02-07T11:14:33.396Z,9.60
2019-02-07T11:17:20.862Z,9.60
2019-02-07T11:20:07.962Z,9.70
2019-02-07T11:22:46.176Z,10.00
2019-02-07T11:25:31.106Z,10.20
2019-02-07T11:28:20.762Z,10.40
2019-02-07T11:31:15.172Z,10.50
2019-02-07T11:34:02.817Z,10.50
2019-02-07T11:37:03.337Z,10.30
2019-02-07T11:39:42.707Z,10.40
2019-02-07T11:42:31.072Z,10.70
2019-02-07T11:45:18.713Z,11.00
2019-02-07T11:47:58.816Z,10.90
2019-02-07T11:50:56.345Z,10.80
2019-02-07T11:53:31.623Z,10.80
2019-02-07T11:56:26.382Z,11.10
2019-02-07T11:59:12.718Z,11.20
2019-02-07T12:02:08.711Z,11.20
2019-02-07T12:04:48.660Z,11.10
2019-02-07T12:07:46.117Z,10.80
2019-02-07T12:10:41.709Z,10.80
2019-02-07T12:13:26.532Z,10.60
2019-02-07T12:16:28.026Z,10.50
2019-02-07T12:19:17.716Z,10.70
2019-02-07T12:21:57.798Z,10.90
2019-02-07T12:24:48.947Z,10.70
2019-02-07T12:27:49.377Z,10.50
2019-02-07T12:30:32.917Z,10.40
2019-02-07T12:33:17.213Z,10.40
2019-02-07T12:36:05.618Z,10.60
2019-02-07T12:38:57.217Z,11.10
2019-02-07T12:41:44.834Z,11.50
2019-02-07T12:44:48.288Z,11.60
2019-02-07T12:47:37.532Z,12.10
2019-02-07T12:50:27.260Z,12.40
2019-02-07T12:53:14.691Z,12.80
2019-02-07T12:56:12.370Z,12.40
2019-02-07T12:59:01.124Z,11.60
2019-02-07T13:01:50.494Z,11.20
2019-02-07T13:04:57.425Z,10.90
2019-02-07T13:07:44.670Z,11.10
2019-02-07T13:10:46.652Z,11.40
2019-02-07T13:13:27.434Z,11.90
2019-02-07T13:16:15.805Z,12.10
2019-02-07T13:19:00.548Z,12.00
2019-02-07T13:21:48.009Z,11.80
2019-02-07T13:24:35.572Z,11.50
2019-02-07T13:27:23.102Z,11.30
2019-02-07T13:30:06.790Z,11.10
2019-02-07T13:32:55.188Z,11.00
2019-02-07T13:35:40.912Z,11.00
2019-02-07T13:38:44.665Z,10.90
2019-02-07T13:41:33.353Z,10.90
2019-02-07T13:44:22.146Z,11.10
2019-02-07T13:47:03.112Z,11.40
2019-02-07T13:49:51.993Z,11.60
2019-02-07T13:52:44.325Z,11.60
2019-02-07T13:55:45.349Z,11.50
2019-02-07T13:58:42.856Z,11.40
2019-02-07T14:01:30.358Z,11.50
2019-02-07T14:04:09.926Z,11.30
2019-02-07T14:07:07.696Z,11.20
2019-02-07T14:09:54.993Z,11.00
2019-02-07T14:12:42.362Z,10.90
2019-02-07T14:15:52.722Z,10.80
2019-02-07T14:18:53.093Z,10.70
2019-02-07T14:21:41.487Z,10.50
2019-02-07T14:24:22.016Z,10.40
2019-02-07T14:27:09.667Z,10.30
2019-02-07T14:29:44.776Z,10.20
2019-02-07T14:32:31.682Z,10.10
2019-02-07T14:35:26.188Z,10.10
2019-02-07T14:38:32.306Z,9.90
2019-02-07T14:41:29.117Z,9.60
2019-02-07T14:44:06.278Z,9.70
2019-02-07T14:46:52.858Z,9.90
2019-02-07T14:49:22.406Z,9.80
2019-02-07T14:51:52.152Z,10.30
2019-02-07T14:54:21.588Z,10.80
2019-02-07T14:56:51.041Z,11.00
2019-02-07T14:59:20.769Z,11.10
2019-02-07T15:01:50.329Z,10.90
2019-02-07T15:04:19.868Z,10.70
2019-02-07T15:06:49.339Z,10.50
2019-02-07T15:09:20.539Z,10.20
2019-02-07T15:11:49.974Z,10.00
2019-02-07T15:14:19.453Z,9.80
2019-02-07T15:16:49.303Z,9.60
2019-02-07T15:19:19.085Z,9.50
2019-02-07T15:21:48.917Z,9.40
2019-02-07T15:24:18.834Z,9.30
2019-02-07T15:26:48.625Z,9.30
2019-02-07T15:29:18.445Z,9.30
2019-02-07T15:31:48.167Z,9.30
2019-02-07T15:34:17.986Z,9.30
2019-02-07T15:36:49.395Z,9.20
2019-02-07T15:39:19.785Z,9.20
2019-02-07T15:41:49.891Z,9.10
2019-02-07T15:44:20.469Z,9.10
2019-02-07T15:46:50.357Z,9.00
2019-02-07T15:49:19.887Z,9.00
2019-02-07T15:51:49.616Z,9.00
2019-02-07T15:54:19.122Z,9.00
2019-02-07T15:56:48.550Z,8.90
2019-02-07T15:59:43.014Z,8.90
2019-02-07T16:02:16.953Z,8.80
2019-02-07T16:04:47.760Z,8.80
2019-02-07T16:07:17.212Z,8.80
2019-02-07T16:09:46.982Z,8.70
2019-02-07T16:12:16.802Z,8.70
2019-02-07T16:14:46.880Z,8.70
2019-02-07T16:17:16.665Z,8.70
2019-02-07T16:19:46.413Z,8.60
2019-02-07T16:22:15.976Z,8.50
2019-02-07T16:24:45.748Z,8.50
2019-02-07T16:27:15.561Z,8.50
2019-02-07T16:29:45.447Z,8.40
2019-02-07T16:32:15.981Z,8.30
2019-02-07T16:34:45.423Z,8.30
2019-02-07T16:37:15.244Z,8.20
2019-02-07T16:39:45.113Z,8.20
2019-02-07T16:42:15.260Z,8.10
2019-02-07T16:44:45.482Z,8.10
2019-02-07T16:47:14.950Z,8.00
2019-02-07T16:49:44.385Z,8.00
2019-02-07T16:52:14.200Z,8.00
2019-02-07T16:54:44.037Z,8.00
2019-02-07T16:57:13.801Z,8.00
2019-02-07T16:59:43.248Z,8.00
2019-02-07T17:02:12.781Z,7.90
2019-02-07T17:04:42.341Z,7.70
2019-02-07T17:07:12.152Z,7.70
2019-02-07T17:09:44.428Z,7.50
2019-02-07T17:12:14.165Z,7.40
2019-02-07T17:14:43.954Z,7.30
2019-02-07T17:17:14.419Z,7.20
2019-02-07T17:19:43.973Z,7.10
2019-02-07T17:22:13.615Z,7.10
2019-02-07T17:24:43.405Z,7.00
2019-02-07T17:27:13.102Z,6.90
2019-02-07T17:29:42.758Z,6.80
2019-02-07T17:32:12.321Z,6.70
2019-02-07T17:34:41.817Z,6.80
2019-02-07T17:37:11.257Z,6.70
2019-02-07T17:39:40.744Z,6.70
2019-02-07T17:42:10.201Z,6.70
2019-02-07T17:44:39.693Z,6.70
2019-02-07T17:47:10.419Z,6.70
2019-02-07T17:49:40.748Z,6.60
2019-02-07T17:52:10.356Z,6.70
2019-02-07T17:54:40.501Z,6.80
2019-02-07T17:57:10.013Z,6.90
2019-02-07T17:59:39.568Z,7.00
2019-02-07T18:02:11.241Z,7.10
2019-02-07T18:04:40.672Z,7.10
2019-02-07T18:07:10.438Z,7.20
2019-02-07T18:09:41.364Z,7.20
2019-02-07T18:12:10.812Z,7.20
2019-02-07T18:14:40.676Z,7.20
2019-02-07T18:17:10.416Z,7.20
2019-02-07T18:19:40.689Z,7.30
2019-02-07T18:22:10.429Z,7.30
2019-02-07T18:24:40.156Z,7.30
2019-02-07T18:27:09.673Z,7.30
2019-02-07T18:29:39.128Z,7.20
2019-02-07T18:32:08.876Z,7.10
2019-02-07T18:34:38.448Z,7.10
2019-02-07T18:37:07.853Z,7.00
2019-02-07T18:39:37.724Z,7.00
2019-02-07T18:42:07.160Z,7.00
2019-02-07T18:44:36.601Z,6.90
2019-02-07T18:47:06.712Z,6.90
2019-02-07T18:49:37.813Z,7.00
2019-02-07T18:52:07.276Z,6.90
2019-02-07T18:54:37.120Z,6.90
2019-02-07T18:57:06.600Z,6.80
2019-02-07T18:59:36.132Z,6.80
2019-02-07T19:02:05.990Z,6.80
2019-02-07T19:04:35.853Z,6.80
2019-02-07T19:07:05.437Z,6.80
2019-02-07T19:09:35.551Z,6.80
2019-02-07T19:12:05.462Z,6.80
2019-02-07T19:14:35.253Z,6.80
2019-02-07T19:17:04.969Z,6.80
2019-02-07T19:19:34.949Z,6.80
2019-02-07T19:22:04.407Z,6.80
2019-02-07T19:24:34.164Z,6.70
2019-02-07T19:27:03.720Z,6.70
2019-02-07T19:29:33.306Z,6.70
2019-02-07T19:32:03.268Z,6.60
2019-02-07T19:34:32.887Z,6.70
2019-02-07T19:37:02.977Z,6.70
2019-02-07T19:39:32.935Z,6.80
2019-02-07T19:42:02.856Z,6.70
2019-02-07T19:44:33.125Z,6.70
2019-02-07T19:47:06.136Z,6.70
2019-02-07T19:49:36.065Z,6.70
2019-02-07T19:52:08.482Z,6.70
2019-02-07T19:54:38.653Z,6.70
2019-02-07T19:57:08.849Z,6.60
2019-02-07T19:59:38.369Z,6.60
2019-02-07T20:02:08.344Z,6.60
2019-02-07T20:04:38.316Z,6.60
2019-02-07T20:07:08.393Z,6.60
2019-02-07T20:09:38.469Z,6.60
2019-02-07T20:12:09.385Z,6.60
2019-02-07T20:14:39.369Z,6.50
2019-02-07T20:17:09.084Z,6.60
2019-02-07T20:19:39.636Z,6.50
2019-02-07T20:22:19.740Z,6.50
2019-02-07T20:24:46.074Z,6.50
2019-02-07T20:27:12.168Z,6.50
2019-02-07T20:29:41.786Z,6.50
2019-02-07T20:32:11.681Z,6.50
2019-02-07T20:34:41.196Z,6.50
2019-02-07T20:37:10.632Z,6.50
2019-02-07T20:39:40.096Z,6.50
2019-02-07T20:42:09.528Z,6.50
2019-02-07T20:44:39.354Z,6.50
2019-02-07T20:47:08.741Z,6.40
2019-02-07T20:49:38.898Z,6.40
2019-02-07T20:52:08.329Z,6.40
2019-02-07T20:54:38.517Z,6.40
2019-02-07T20:57:07.960Z,6.40
2019-02-07T20:59:38.117Z,6.40
2019-02-07T21:02:07.682Z,6.40
2019-02-07T21:04:37.114Z,6.50
2019-02-07T21:07:06.590Z,6.40
2019-02-07T21:09:36.050Z,6.40
2019-02-07T21:12:05.731Z,6.40
2019-02-07T21:14:35.169Z,6.30
2019-02-07T21:17:04.619Z,6.40
2019-02-07T21:19:34.057Z,6.40
2019-02-07T21:22:03.519Z,6.40
2019-02-07T21:24:33.285Z,6.40
2019-02-07T21:27:03.045Z,6.50
2019-02-07T21:29:33.101Z,6.50
2019-02-07T21:32:02.549Z,6.50
2019-02-07T21:34:31.984Z,6.50
2019-02-07T21:37:01.759Z,6.50
2019-02-07T21:39:31.192Z,6.50
2019-02-07T21:42:00.964Z,6.50
2019-02-07T21:44:30.406Z,6.50
2019-02-07T21:46:59.883Z,6.50
2019-02-07T21:49:29.349Z,6.40
2019-02-07T21:51:58.837Z,6.40
2019-02-07T21:54:28.287Z,6.40
2019-02-07T21:56:57.939Z,6.40
2019-02-07T21:59:27.804Z,6.40
2019-02-07T22:01:57.240Z,6.40
2019-02-07T22:04:26.628Z,6.40
2019-02-07T22:06:56.147Z,6.40
2019-02-07T22:09:25.926Z,6.40
2019-02-07T22:11:55.660Z,6.40
2019-02-07T22:14:25.126Z,6.40
2019-02-07T22:16:54.888Z,6.40
2019-02-07T22:19:24.690Z,6.40
2019-02-07T22:21:56.609Z,6.40
2019-02-07T22:24:26.048Z,6.40
2019-02-07T22:26:55.852Z,6.40
2019-02-07T22:29:25.368Z,6.40
2019-02-07T22:31:54.856Z,6.40
2019-02-07T22:34:24.297Z,6.40
2019-02-07T22:36:53.774Z,6.40
2019-02-07T22:39:23.241Z,6.40
2019-02-07T22:41:52.984Z,6.40
2019-02-07T22:44:22.445Z,6.40
2019-02-07T22:46:51.900Z,6.40
2019-02-07T22:49:21.768Z,6.40
2019-02-07T22:51:51.221Z,6.40
2019-02-07T22:54:20.676Z,6.30
2019-02-07T22:56:50.127Z,6.40
2019-02-07T22:59:19.610Z,6.40
2019-02-07T23:01:52.473Z,6.40
2019-02-07T23:04:23.250Z,6.30
2019-02-07T23:06:53.002Z,6.30
2019-02-07T23:09:22.464Z,6.30
2019-02-07T23:11:52.643Z,6.30
2019-02-07T23:14:22.158Z,6.30
2019-02-07T23:16:51.979Z,6.30
2019-02-07T23:19:21.429Z,6.30
2019-02-07T23:21:50.864Z,6.30
2019-02-07T23:24:20.614Z,6.30
2019-02-07T23:26:51.049Z,6.30
2019-02-07T23:29:20.589Z,6.20
2019-02-07T23:31:50.153Z,6.30
2019-02-07T23:34:19.634Z,6.30
2019-02-07T23:36:49.100Z,6.30
2019-02-07T23:39:18.618Z,6.30
2019-02-07T23:41:48.659Z,6.30
2019-02-07T23:44:18.469Z,6.30
2019-02-07T23:46:47.928Z,6.30
2019-02-07T23:49:17.333Z,6.20
2019-02-07T23:51:47.109Z,6.20
2019-02-07T23:54:16.824Z,6.20
2019-02-07T23:56:46.307Z,6.20
2019-02-07T23:59:16.043Z,6.20
